Time;durP1;ratioP1;P1;durP2;ratioP2;P2;SDS_P1;SDS_P2;PMS_P1;PMS_P2;Temp;Humidity;BMP_temperature;BMP_pressure;BME280_temperature;BME280_humidity;BME280_pressure;Samples;Min_cycle;Max_cycle;Signal;HPM_P1;HPM_P2
2023/09/07 00:01:27;;;;;;;1999.90;999.90;;;22.90;99.90;;;;;;5095912;28;20063;-78
2023/09/07 00:03:52;;;;;;;1999.90;999.90;;;22.90;99.90;;;;;;5095363;28;20044;-73
2023/09/07 00:06:18;;;;;;;1999.90;999.90;;;22.90;99.90;;;;;;5095535;28;20049;-73
2023/09/07 00:08:44;;;;;;;1999.90;999.90;;;22.90;99.90;;;;;;5086110;28;20043;-78
2023/09/07 00:11:10;;;;;;;1999.90;999.90;;;22.90;99.90;;;;;;5075051;28;20028;-78
2023/09/07 00:13:36;;;;;;;1999.90;999.90;;;22.90;99.90;;;;;;5081255;28;20028;-78
2023/09/07 00:16:03;;;;;;;1999.90;999.90;;;22.80;99.90;;;;;;5081976;28;20047;-73
2023/09/07 00:18:29;;;;;;;1999.90;999.90;;;22.70;99.90;;;;;;5074764;28;20039;-73
2023/09/07 00:20:55;;;;;;;1999.90;999.90;;;22.70;99.90;;;;;;5074548;28;20456;-78
2023/09/07 00:23:21;;;;;;;1999.90;999.90;;;22.70;99.90;;;;;;5073992;28;20023;-73
2023/09/07 00:25:47;;;;;;;1999.90;999.90;;;22.60;99.90;;;;;;5075089;28;20037;-78
2023/09/07 00:28:13;;;;;;;1999.90;999.90;;;22.70;99.90;;;;;;5074832;28;20078;-73
2023/09/07 00:30:39;;;;;;;1999.90;999.90;;;22.60;99.90;;;;;;5081027;28;20028;-73
2023/09/07 00:33:05;;;;;;;1999.90;999.90;;;22.70;99.90;;;;;;5090323;28;20024;-77
2023/09/07 00:35:30;;;;;;;1999.90;999.90;;;22.70;99.90;;;;;;5094731;28;20032;-78
2023/09/07 00:37:56;;;;;;;1999.90;999.90;;;22.70;99.90;;;;;;5094574;28;20028;-78
2023/09/07 00:40:22;;;;;;;1999.90;999.90;;;22.60;99.90;;;;;;5094497;28;20038;-78
2023/09/07 00:42:48;;;;;;;1999.90;999.90;;;22.60;99.90;;;;;;5094712;28;20026;-73
2023/09/07 00:45:14;;;;;;;1999.90;999.90;;;22.60;99.90;;;;;;5094381;28;20103;-73
2023/09/07 00:47:40;;;;;;;1999.90;999.90;;;22.60;99.90;;;;;;5092553;28;20444;-74
2023/09/07 00:50:06;;;;;;;1999.90;999.90;;;22.60;99.90;;;;;;5094313;28;20032;-78
2023/09/07 00:52:33;;;;;;;1999.90;999.90;;;22.50;99.90;;;;;;5094389;28;20020;-73
2023/09/07 00:55:01;;;;;;;1999.90;999.90;;;22.50;99.90;;;;;;5094407;28;20024;-73
2023/09/07 00:57:27;;;;;;;1999.90;999.90;;;22.50;99.90;;;;;;5094478;28;20027;-73
2023/09/07 00:59:53;;;;;;;1999.90;999.90;;;22.40;99.90;;;;;;5092814;28;20020;-78
2023/09/07 01:02:19;;;;;;;1999.90;999.90;;;22.40;99.90;;;;;;5094353;28;20024;-73
2023/09/07 01:04:44;;;;;;;1999.90;999.90;;;22.40;99.90;;;;;;5094144;28;20177;-78
2023/09/07 01:07:20;;;;;;;1999.90;999.90;;;22.40;99.90;;;;;;5094379;28;20057;-73
2023/09/07 01:09:48;;;;;;;1999.90;999.90;;;22.40;99.90;;;;;;5076288;28;20543;-73
2023/09/07 01:12:15;;;;;;;1999.90;999.90;;;22.40;99.90;;;;;;5074161;28;20071;-78
2023/09/07 01:14:41;;;;;;;1999.90;999.90;;;22.40;99.90;;;;;;5080727;28;20037;-73
2023/09/07 01:17:07;;;;;;;1999.90;999.90;;;22.30;99.90;;;;;;5094256;28;20020;-78
2023/09/07 01:19:33;;;;;;;1999.90;999.90;;;22.30;99.90;;;;;;5094592;28;20405;-73
2023/09/07 01:21:59;;;;;;;1999.90;999.90;;;22.30;99.90;;;;;;5093911;28;20016;-73
2023/09/07 01:24:28;;;;;;;1999.90;999.90;;;22.20;99.90;;;;;;5092486;28;20032;-73
2023/09/07 01:26:54;;;;;;;1999.90;999.90;;;22.20;99.90;;;;;;5073705;28;20373;-78
2023/09/07 01:29:20;;;;;;;1999.90;999.90;;;22.20;99.90;;;;;;5075612;28;20016;-77
2023/09/07 01:31:45;;;;;;;1999.90;999.90;;;22.20;99.90;;;;;;5083081;28;20057;-73
2023/09/07 01:34:11;;;;;;;1999.90;999.90;;;22.10;99.90;;;;;;5093040;28;20063;-73
2023/09/07 01:36:37;;;;;;;1999.90;999.90;;;22.10;99.90;;;;;;5092095;28;20051;-73
2023/09/07 01:39:05;;;;;;;1999.90;999.90;;;22.10;99.90;;;;;;5092185;28;20036;-78
2023/09/07 01:41:31;;;;;;;1999.90;999.90;;;22.00;99.90;;;;;;5093707;28;20039;-78
2023/09/07 01:43:57;;;;;;;1999.90;999.90;;;22.00;99.90;;;;;;5093993;28;20486;-78
2023/09/07 01:46:22;;;;;;;1999.90;999.90;;;22.00;99.90;;;;;;5092050;28;20031;-74
2023/09/07 01:48:48;;;;;;;1999.90;999.90;;;22.00;99.90;;;;;;5075572;28;20102;-73
2023/09/07 01:51:13;;;;;;;1999.90;999.90;;;21.90;99.90;;;;;;5078359;28;20039;-78
2023/09/07 01:53:39;;;;;;;1999.90;999.90;;;22.00;99.90;;;;;;5073923;28;20061;-78
2023/09/07 01:56:04;;;;;;;1999.90;999.90;;;21.90;99.90;;;;;;5073083;28;20060;-78
2023/09/07 01:58:30;;;;;;;1999.90;999.90;;;21.90;99.90;;;;;;5073206;28;20036;-78
2023/09/07 02:00:59;;;;;;;1999.90;999.90;;;21.90;99.90;;;;;;5073197;28;20048;-73
2023/09/07 02:03:25;;;;;;;1999.90;999.90;;;21.90;99.90;;;;;;5073321;28;20024;-73
2023/09/07 02:05:53;;;;;;;1999.90;999.90;;;21.90;99.90;;;;;;5073421;28;20127;-78
2023/09/07 02:08:18;;;;;;;1999.90;999.90;;;21.90;99.90;;;;;;5073071;28;20028;-78
2023/09/07 02:10:44;;;;;;;1999.90;999.90;;;21.90;99.90;;;;;;5073026;28;20033;-78
2023/09/07 02:13:10;;;;;;;1999.90;999.90;;;21.90;99.90;;;;;;5076867;28;20036;-73
2023/09/07 02:15:39;;;;;;;1999.90;999.90;;;21.90;99.90;;;;;;5082590;28;20118;-78
2023/09/07 02:18:05;;;;;;;1999.90;999.90;;;21.90;99.90;;;;;;5093219;28;20024;-78
2023/09/07 02:20:32;;;;;;;1999.90;999.90;;;21.90;99.90;;;;;;5093457;28;20059;-78
2023/09/07 02:22:57;;;;;;;1999.90;999.90;;;21.90;99.90;;;;;;5092938;28;20111;-77
2023/09/07 02:25:23;;;;;;;1999.90;999.90;;;21.90;99.90;;;;;;5093024;28;20099;-73
2023/09/07 02:27:49;;;;;;;1999.90;999.90;;;22.00;99.90;;;;;;5092021;28;20487;-73
2023/09/07 02:30:14;;;;;;;1999.90;999.90;;;22.00;99.90;;;;;;5085898;28;20042;-78
2023/09/07 02:32:43;;;;;;;1999.90;999.90;;;22.10;99.90;;;;;;5084627;28;20043;-78
2023/09/07 02:35:12;;;;;;;1999.90;999.90;;;22.10;99.90;;;;;;5092932;28;20029;-78
2023/09/07 02:37:38;;;;;;;1999.90;999.90;;;22.10;99.90;;;;;;5092148;28;20016;-78
2023/09/07 02:40:08;;;;;;;1999.90;999.90;;;22.10;99.90;;;;;;5092939;28;20035;-73
2023/09/07 02:42:34;;;;;;;1999.90;999.90;;;22.10;99.90;;;;;;5093480;28;20486;-73
2023/09/07 02:44:59;;;;;;;1999.90;999.90;;;22.10;99.90;;;;;;5097335;28;20027;-78
2023/09/07 02:47:25;;;;;;;1999.90;999.90;;;22.10;99.90;;;;;;5080285;28;20028;-78
2023/09/07 02:49:51;;;;;;;1999.90;999.90;;;22.00;99.90;;;;;;5076755;28;20047;-78
2023/09/07 02:52:16;;;;;;;1999.90;999.90;;;22.00;99.90;;;;;;5076288;28;20560;-73
2023/09/07 02:54:42;;;;;;;1999.90;999.90;;;21.90;99.90;;;;;;5076303;28;20028;-73
2023/09/07 02:57:07;;;;;;;1999.90;999.90;;;21.90;99.90;;;;;;5076445;28;20031;-73
2023/09/07 02:59:33;;;;;;;1999.90;999.90;;;21.90;99.90;;;;;;5076602;28;20028;-78
2023/09/07 03:01:59;;;;;;;1999.90;999.90;;;21.80;99.90;;;;;;5076426;28;20021;-78
2023/09/07 03:04:24;;;;;;;1999.90;999.90;;;21.70;99.90;;;;;;5076226;28;20090;-73
2023/09/07 03:06:50;;;;;;;1999.90;999.90;;;21.60;99.90;;;;;;5074939;28;20028;-73
2023/09/07 03:09:15;;;;;;;1999.90;999.90;;;21.60;99.90;;;;;;5076087;28;20060;-73
2023/09/07 03:11:41;;;;;;;1999.90;999.90;;;21.50;99.90;;;;;;5075895;28;20394;-73
2023/09/07 03:14:07;;;;;;;1999.90;999.90;;;21.50;99.90;;;;;;5082548;28;20028;-78
2023/09/07 03:16:32;;;;;;;1999.90;999.90;;;21.50;99.90;;;;;;5092457;28;20089;-78
2023/09/07 03:18:58;;;;;;;1999.90;999.90;;;21.60;99.90;;;;;;5096541;28;20024;-73
2023/09/07 03:21:29;;;;;;;1999.90;999.90;;;21.50;99.90;;;;;;5095887;28;20671;-74
2023/09/07 03:23:56;;;;;;;1999.90;999.90;;;21.60;99.90;;;;;;5096002;28;20084;-78
2023/09/07 03:26:21;;;;;;;1999.90;999.90;;;21.50;99.90;;;;;;5096167;28;20036;-78
2023/09/07 03:28:47;;;;;;;1999.90;999.90;;;21.50;99.90;;;;;;5094842;28;20036;-78
2023/09/07 03:31:12;;;;;;;1999.90;999.90;;;21.50;99.90;;;;;;5082890;28;20037;-73
2023/09/07 03:33:38;;;;;;;1999.90;999.90;;;21.40;99.90;;;;;;5096114;28;20468;-73
2023/09/07 03:36:04;;;;;;;1999.90;999.90;;;21.40;99.90;;;;;;5095608;28;20022;-78
2023/09/07 03:38:30;;;;;;;1999.90;999.90;;;21.50;99.90;;;;;;5095698;28;20501;-77
2023/09/07 03:40:55;;;;;;;1999.90;999.90;;;21.50;99.90;;;;;;5095700;28;20020;-78
2023/09/07 03:43:21;;;;;;;1999.90;999.90;;;21.60;99.90;;;;;;5095772;28;20139;-73
2023/09/07 03:45:47;;;;;;;1999.90;999.90;;;21.70;99.90;;;;;;5096270;28;20451;-73
2023/09/07 03:48:12;;;;;;;1999.90;999.90;;;21.70;99.90;;;;;;5095605;28;20031;-77
2023/09/07 03:50:38;;;;;;;1999.90;999.90;;;21.80;99.90;;;;;;5095675;28;20024;-78
2023/09/07 03:53:03;;;;;;;1999.90;999.90;;;21.80;99.90;;;;;;5095605;28;20085;-78
2023/09/07 03:55:29;;;;;;;1999.90;999.90;;;21.80;99.90;;;;;;5094771;28;20462;-78
2023/09/07 03:57:55;;;;;;;1999.90;999.90;;;21.80;99.90;;;;;;5095793;28;20028;-73
2023/09/07 04:00:20;;;;;;;1999.90;999.90;;;21.80;99.90;;;;;;5095434;28;20020;-78
2023/09/07 04:02:46;;;;;;;1999.90;999.90;;;21.80;99.90;;;;;;5094095;28;20494;-73
2023/09/07 04:05:12;;;;;;;1999.90;999.90;;;21.80;99.90;;;;;;5095195;28;20058;-78
2023/09/07 04:07:38;;;;;;;1999.90;999.90;;;21.80;99.90;;;;;;5082963;28;20471;-77
2023/09/07 04:10:04;;;;;;;1999.90;999.90;;;21.70;99.90;;;;;;5093370;28;20031;-73
2023/09/07 04:12:31;;;;;;;1999.90;999.90;;;21.60;99.90;;;;;;5075929;28;20025;-74
2023/09/07 04:14:56;;;;;;;1999.90;999.90;;;21.50;99.90;;;;;;5083502;28;20016;-73
2023/09/07 04:17:22;;;;;;;1999.90;999.90;;;21.50;99.90;;;;;;5095336;28;20031;-78
2023/09/07 04:19:47;;;;;;;1999.90;999.90;;;21.40;99.90;;;;;;5094242;28;20027;-78
2023/09/07 04:22:13;;;;;;;1999.90;999.90;;;21.30;99.90;;;;;;5095305;28;20107;-74
2023/09/07 04:24:39;;;;;;;1999.90;999.90;;;21.30;99.90;;;;;;5094803;28;20020;-78
2023/09/07 04:27:04;;;;;;;1999.90;999.90;;;21.20;99.90;;;;;;5095115;28;20119;-78
2023/09/07 04:29:30;;;;;;;1999.90;999.90;;;21.20;99.90;;;;;;5089646;28;20018;-78
2023/09/07 04:31:56;;;;;;;1999.90;999.90;;;21.10;99.90;;;;;;5085550;28;20028;-74
2023/09/07 04:34:22;;;;;;;1999.90;999.90;;;21.10;99.90;;;;;;5089730;28;20035;-78
2023/09/07 04:36:48;;;;;;;1999.90;999.90;;;21.10;99.90;;;;;;5085755;28;20073;-73
2023/09/07 04:39:16;;;;;;;1999.90;999.90;;;21.10;99.90;;;;;;5093399;28;20016;-78
2023/09/07 04:41:42;;;;;;;1999.90;999.90;;;21.20;99.90;;;;;;5093231;28;20110;-78
2023/09/07 04:44:08;;;;;;;1999.90;999.90;;;21.20;99.90;;;;;;5094712;28;20543;-78
2023/09/07 04:46:33;;;;;;;1999.90;999.90;;;21.20;99.90;;;;;;5094602;28;20036;-73
2023/09/07 04:48:59;;;;;;;1999.90;999.90;;;21.20;99.90;;;;;;5094537;28;20032;-73
2023/09/07 04:51:25;;;;;;;1999.90;999.90;;;21.10;99.90;;;;;;5094795;28;20032;-73
2023/09/07 04:53:51;;;;;;;1999.90;999.90;;;21.10;99.90;;;;;;5094192;28;20028;-73
2023/09/07 04:56:17;;;;;;;1999.90;999.90;;;21.10;99.90;;;;;;5092773;28;20506;-78
2023/09/07 04:58:43;;;;;;;1999.90;999.90;;;21.00;99.90;;;;;;5094993;28;20020;-78
2023/09/07 05:01:11;;;;;;;1999.90;999.90;;;21.00;99.90;;;;;;5085470;28;20157;-78
2023/09/07 05:03:37;;;;;;;1999.90;999.90;;;21.00;99.90;;;;;;5073858;28;20487;-73
2023/09/07 05:06:04;;;;;;;1999.90;999.90;;;21.00;99.90;;;;;;5073577;28;20032;-78
2023/09/07 05:08:31;;;;;;;1999.90;999.90;;;21.00;99.90;;;;;;5069107;28;20029;-78
2023/09/07 05:10:58;;;;;;;1999.90;999.90;;;20.90;99.90;;;;;;5060666;28;20036;-78
2023/09/07 05:13:25;;;;;;;1999.90;999.90;;;20.90;99.90;;;;;;5079461;28;20024;-73
2023/09/07 05:15:52;;;;;;;1999.90;999.90;;;20.90;99.90;;;;;;5083357;28;20032;-73
2023/09/07 05:18:18;;;;;;;1999.90;999.90;;;20.90;99.90;;;;;;5093661;28;20027;-73
2023/09/07 05:20:51;;;;;;;1999.90;999.90;;;20.90;99.90;;;;;;5093498;28;20156;-73
2023/09/07 05:23:19;;;;;;;1999.90;999.90;;;20.90;99.90;;;;;;5093495;28;20030;-78
2023/09/07 05:25:50;;;;;;;1999.90;999.90;;;20.90;99.90;;;;;;5094268;28;20024;-78
2023/09/07 05:28:16;;;;;;;1999.90;999.90;;;20.90;99.90;;;;;;5093560;28;20032;-74
2023/09/07 05:30:42;;;;;;;1999.90;999.90;;;20.90;99.90;;;;;;5082931;28;20443;-73
2023/09/07 05:33:10;;;;;;;1999.90;999.90;;;20.80;99.90;;;;;;5089978;28;20020;-73
2023/09/07 05:35:36;;;;;;;1999.90;999.90;;;20.90;99.90;;;;;;5078625;28;20035;-78
2023/09/07 05:38:03;;;;;;;1999.90;999.90;;;20.90;99.90;;;;;;5091734;28;20024;-78
2023/09/07 05:40:29;;;;;;;1999.90;999.90;;;20.90;99.90;;;;;;5087895;28;20066;-73
2023/09/07 05:42:54;;;;;;;1999.90;999.90;;;20.90;99.90;;;;;;5079788;28;20028;-73
2023/09/07 05:45:20;;;;;;;1999.90;999.90;;;20.90;99.90;;;;;;5079091;28;20058;-77
2023/09/07 05:47:46;;;;;;;1999.90;999.90;;;20.90;99.90;;;;;;5055573;28;20108;-78
2023/09/07 05:50:11;;;;;;;1999.90;999.90;;;20.90;99.90;;;;;;5075924;28;20099;-78
2023/09/07 05:52:37;;;;;;;1999.90;999.90;;;20.90;99.90;;;;;;5070316;28;20041;-73
2023/09/07 05:55:03;;;;;;;1999.90;999.90;;;21.00;99.90;;;;;;5071532;28;20457;-73
2023/09/07 05:57:29;;;;;;;1999.90;999.90;;;21.10;99.90;;;;;;5072407;28;20559;-78
2023/09/07 05:59:54;;;;;;;1999.90;999.90;;;21.10;99.90;;;;;;5071275;28;20024;-78
2023/09/07 06:02:20;;;;;;;1999.90;999.90;;;21.10;99.90;;;;;;5064349;28;20841;-78
2023/09/07 06:04:46;;;;;;;1999.90;999.90;;;21.10;99.90;;;;;;5067094;28;20048;-77
2023/09/07 06:07:11;;;;;;;1999.90;999.90;;;21.10;99.90;;;;;;5070921;28;20104;-74
2023/09/07 06:09:37;;;;;;;1999.90;999.90;;;21.20;99.90;;;;;;5072165;28;20458;-73
2023/09/07 06:12:03;;;;;;;1999.90;999.90;;;21.20;99.90;;;;;;5072109;28;20039;-79
2023/09/07 06:14:29;;;;;;;1999.90;999.90;;;21.30;99.90;;;;;;5075919;28;20036;-79
2023/09/07 06:16:54;;;;;;;1999.90;999.90;;;21.30;99.90;;;;;;5081641;28;20040;-79
2023/09/07 06:19:20;;;;;;;1999.90;999.90;;;21.40;99.90;;;;;;5076518;28;20029;-74
2023/09/07 06:21:45;;;;;;;1999.90;999.90;;;21.40;99.90;;;;;;5071044;28;20104;-73
2023/09/07 06:24:11;;;;;;;1999.90;999.90;;;21.50;99.90;;;;;;5072667;28;20450;-80
2023/09/07 06:26:36;;;;;;;1999.90;999.90;;;21.60;99.90;;;;;;5072136;28;20039;-80
2023/09/07 06:29:02;;;;;;;1999.90;999.90;;;21.70;99.90;;;;;;5072086;28;20036;-79
2023/09/07 06:31:28;;;;;;;1999.90;999.90;;;21.80;99.90;;;;;;5075286;28;20021;-80
2023/09/07 06:33:54;;;;;;;1999.90;999.90;;;21.90;99.90;;;;;;5073824;28;20029;-75
2023/09/07 06:36:20;;;;;;;1999.90;999.90;;;22.00;99.90;;;;;;5066615;28;20036;-76
2023/09/07 06:38:45;;;;;;;1999.90;999.90;;;22.10;99.90;;;;;;5063768;28;20024;-79
2023/09/07 06:41:12;;;;;;;1999.90;999.90;;;22.20;99.90;;;;;;5066524;28;20033;-78
2023/09/07 06:43:37;;;;;;;1999.90;999.90;;;22.30;99.90;;;;;;5079271;28;20042;-79
2023/09/07 06:46:07;;;;;;;1999.90;999.90;;;22.40;99.90;;;;;;5064988;28;20487;-73
2023/09/07 06:48:33;;;;;;;1999.90;999.90;;;22.50;99.90;;;;;;5066291;28;20028;-73
2023/09/07 06:51:07;;;;;;;1999.90;999.90;;;22.60;99.90;;;;;;5076539;28;20516;-79
2023/09/07 06:53:32;;;;;;;1999.90;999.90;;;22.60;99.90;;;;;;5073845;28;20033;-79
2023/09/07 06:55:59;;;;;;;1999.90;999.90;;;22.70;99.90;;;;;;5057129;28;20039;-80
2023/09/07 06:58:25;;;;;;;1999.90;999.90;;;22.80;99.90;;;;;;5076970;28;20386;-75
2023/09/07 07:00:50;;;;;;;1999.90;999.90;;;22.80;99.90;;;;;;5075090;28;20021;-75
2023/09/07 07:03:16;;;;;;;1999.90;999.90;;;22.80;99.90;;;;;;5069805;28;20021;-81
2023/09/07 07:05:42;;;;;;;1999.90;999.90;;;22.80;99.90;;;;;;5075820;28;20457;-78
2023/09/07 07:08:09;;;;;;;1999.90;999.90;;;22.90;99.90;;;;;;5061883;28;20120;-75
2023/09/07 07:10:34;;;;;;;1999.90;999.90;;;22.90;99.90;;;;;;5074310;28;20032;-80
2023/09/07 07:13:00;;;;;;;1999.90;999.90;;;23.00;99.90;;;;;;5071263;28;20518;-75
2023/09/07 07:15:26;;;;;;;1999.90;999.90;;;23.10;99.90;;;;;;5074316;28;20029;-80
2023/09/07 07:17:51;;;;;;;1999.90;999.90;;;23.20;99.90;;;;;;5070565;28;20027;-75
2023/09/07 07:20:17;;;;;;;1999.90;999.90;;;23.30;99.90;;;;;;5073373;28;20028;-80
2023/09/07 07:22:42;;;;;;;1999.90;999.90;;;23.30;99.90;;;;;;5069182;28;20032;-78
2023/09/07 07:25:08;;;;;;;1999.90;999.90;;;23.40;99.90;;;;;;5070783;28;20077;-73
2023/09/07 07:27:34;;;;;;;1999.90;999.90;;;23.40;99.90;;;;;;5070762;28;20403;-79
2023/09/07 07:29:59;;;;;;;1999.90;999.90;;;23.50;99.90;;;;;;5078538;28;20094;-77
2023/09/07 07:32:25;;;;;;;1999.90;999.90;;;23.60;99.90;;;;;;5074032;28;20029;-78
2023/09/07 07:34:50;;;;;;;1999.90;999.90;;;23.60;99.90;;;;;;5074061;28;20032;-75
2023/09/07 07:37:16;;;;;;;1999.90;999.90;;;23.80;99.90;;;;;;5076796;28;20034;-75
2023/09/07 07:39:42;;;;;;;1999.90;999.90;;;24.00;99.90;;;;;;5076907;28;20139;-75
2023/09/07 07:42:07;;;;;;;1999.90;999.90;;;24.00;99.90;;;;;;5070841;28;20032;-76
2023/09/07 07:44:33;;;;;;;1999.90;999.90;;;24.20;99.90;;;;;;5072537;28;20021;-75
2023/09/07 07:46:58;;;;;;;1999.90;999.90;;;24.40;99.90;;;;;;5076495;28;20060;-76
2023/09/07 07:49:24;;;;;;;1999.90;999.90;;;24.90;99.90;;;;;;5076133;28;20127;-76
2023/09/07 07:51:51;;;;;;;1999.90;999.90;;;26.30;99.90;;;;;;5076122;28;20021;-76
2023/09/07 07:54:17;;;;;;;1999.90;999.90;;;26.90;99.90;;;;;;5074260;28;20020;-75
2023/09/07 07:56:42;;;;;;;1999.90;999.90;;;27.50;99.90;;;;;;5074550;28;20403;-76
2023/09/07 07:59:08;;;;;;;1999.90;999.90;;;27.90;99.90;;;;;;5073429;28;20039;-76
2023/09/07 08:01:33;;;;;;;1999.90;999.90;;;28.00;99.90;;;;;;5072986;28;20033;-75
2023/09/07 08:03:59;;;;;;;1999.90;999.90;;;28.50;99.90;;;;;;5072741;28;20037;-75
2023/09/07 08:06:25;;;;;;;1999.90;999.90;;;29.40;99.90;;;;;;5073694;28;20093;-75
2023/09/07 08:08:50;;;;;;;1999.90;999.90;;;29.30;99.90;;;;;;5080162;28;20028;-76
2023/09/07 08:11:16;;;;;;;1999.90;999.90;;;29.30;99.90;;;;;;5075048;28;20107;-76
2023/09/07 08:13:45;;;;;;;1999.90;999.90;;;29.50;99.90;;;;;;5074325;28;20029;-75
2023/09/07 08:16:11;;;;;;;1999.90;999.90;;;29.80;99.90;;;;;;5075580;28;20086;-74
2023/09/07 08:18:36;;;;;;;1999.90;999.90;;;30.10;99.90;;;;;;5082587;28;20028;-75
2023/09/07 08:21:02;;;;;;;1999.90;999.90;;;30.30;99.90;;;;;;5073419;28;20044;-75
2023/09/07 08:23:28;;;;;;;1999.90;999.90;;;30.60;99.90;;;;;;5071631;28;20099;-75
2023/09/07 08:25:54;;;;;;;1999.90;999.90;;;30.20;99.90;;;;;;5074219;28;20098;-76
2023/09/07 08:28:22;;;;;;;1999.90;999.90;;;30.40;99.90;;;;;;5077104;28;20545;-75
2023/09/07 08:30:50;;;;;;;1999.90;999.90;;;30.60;99.90;;;;;;5073863;28;20039;-74
2023/09/07 08:33:17;;;;;;;1999.90;999.90;;;31.00;99.50;;;;;;5080882;28;20027;-74
2023/09/07 08:35:44;;;;;;;1999.90;999.90;;;30.70;99.20;;;;;;5069431;28;20047;-74
2023/09/07 08:38:13;;;;;;;1999.90;999.90;;;30.30;99.60;;;;;;5080095;28;20016;-76
2023/09/07 08:40:40;;;;;;;1999.90;999.90;;;31.10;99.10;;;;;;5075929;28;20074;-76
2023/09/07 08:43:09;;;;;;;1999.90;999.90;;;30.20;99.20;;;;;;5086127;28;20031;-76
2023/09/07 08:45:41;;;;;;;1999.90;999.90;;;29.90;99.90;;;;;;5080248;28;20031;-75
2023/09/07 08:48:09;;;;;;;1999.90;999.90;;;31.00;99.30;;;;;;5077300;28;20023;-75
2023/09/07 08:50:37;;;;;;;1999.90;999.90;;;31.60;98.40;;;;;;5073898;28;20433;-76
2023/09/07 08:53:04;;;;;;;1999.90;999.90;;;32.20;97.50;;;;;;5074315;28;20024;-76
2023/09/07 08:55:30;;;;;;;1999.90;999.90;;;32.40;97.10;;;;;;5072041;28;20024;-75
2023/09/07 08:57:56;;;;;;;1999.90;999.90;;;33.10;96.90;;;;;;5078189;28;20104;-76
2023/09/07 09:00:23;;;;;;;1999.90;999.90;;;33.20;96.20;;;;;;5077062;28;20040;-76
2023/09/07 09:02:49;;;;;;;1999.90;999.90;;;32.70;95.80;;;;;;5079543;28;20020;-76
2023/09/07 09:05:15;;;;;;;1999.90;999.90;;;32.80;96.30;;;;;;5073780;28;20048;-76
2023/09/07 09:07:41;;;;;;;1999.90;999.90;;;32.90;96.10;;;;;;5072481;28;20052;-76
2023/09/07 09:10:08;;;;;;;1999.90;999.90;;;33.20;95.50;;;;;;5074992;28;20071;-75
2023/09/07 09:12:34;;;;;;;1999.90;999.90;;;32.90;95.20;;;;;;5085564;28;20028;-75
2023/09/07 09:15:04;;;;;;;1999.90;999.90;;;32.50;95.40;;;;;;5082604;28;20062;-75
2023/09/07 09:17:29;;;;;;;1999.90;999.90;;;32.70;95.30;;;;;;5072583;28;20025;-75
2023/09/07 09:19:55;;;;;;;1999.90;999.90;;;32.40;95.30;;;;;;5072677;28;20128;-76
2023/09/07 09:22:21;;;;;;;1999.90;999.90;;;32.80;94.70;;;;;;5071618;28;20040;-75
2023/09/07 09:24:48;;;;;;;1999.90;999.90;;;32.80;94.20;;;;;;5072538;28;20029;-75
2023/09/07 09:27:13;;;;;;;1999.90;999.90;;;32.70;94.20;;;;;;5072483;28;20071;-76
2023/09/07 09:29:39;;;;;;;1999.90;999.90;;;33.20;94.00;;;;;;5072498;28;20059;-76
2023/09/07 09:32:07;;;;;;;1999.90;999.90;;;33.30;94.00;;;;;;5071182;28;20031;-75
2023/09/07 09:34:37;;;;;;;1999.90;999.90;;;33.50;93.80;;;;;;5072310;28;20036;-75
2023/09/07 09:37:03;;;;;;;1999.90;999.90;;;33.40;93.50;;;;;;5071512;28;20480;-75
2023/09/07 09:39:29;;;;;;;1999.90;999.90;;;33.50;93.70;;;;;;5072221;28;20017;-75
2023/09/07 09:41:55;;;;;;;1999.90;999.90;;;32.90;93.60;;;;;;5072421;28;20032;-76
2023/09/07 09:44:25;;;;;;;1999.90;999.90;;;32.50;94.20;;;;;;5072141;28;20040;-76
2023/09/07 09:46:55;;;;;;;1999.90;999.90;;;32.90;94.20;;;;;;5073974;28;20074;-76
2023/09/07 09:49:22;;;;;;;1999.90;999.90;;;33.00;93.80;;;;;;5070381;28;20032;-74
2023/09/07 09:51:51;;;;;;;1999.90;999.90;;;32.70;93.70;;;;;;5062487;28;20099;-75
2023/09/07 09:54:18;;;;;;;1999.90;999.90;;;32.90;93.80;;;;;;5072116;28;20033;-76
2023/09/07 09:56:44;;;;;;;1999.90;999.90;;;32.80;93.60;;;;;;5070131;28;20046;-76
2023/09/07 09:59:12;;;;;;;1999.90;999.90;;;32.60;93.50;;;;;;5069888;28;20028;-76
2023/09/07 10:01:44;;;;;;;1999.90;999.90;;;32.10;94.00;;;;;;5072228;28;20063;-75
2023/09/07 10:04:11;;;;;;;;;;;31.90;94.50;;;;;;5072409;28;20045;-75
2023/09/07 10:06:38;;;;;;;1999.90;999.90;;;31.70;94.70;;;;;;5062903;28;19912;-76
2023/09/07 10:09:06;;;;;;;1999.90;999.90;;;31.50;95.00;;;;;;5066706;28;20152;-76
2023/09/07 10:11:40;;;;;;;1999.90;999.90;;;31.60;95.20;;;;;;5071737;28;20090;-76
2023/09/07 10:14:07;;;;;;;1999.90;999.90;;;31.60;94.90;;;;;;5075441;28;20479;-74
2023/09/07 10:16:50;;;;;;;1999.90;999.90;;;31.40;94.80;;;;;;5071707;28;20481;-74
2023/09/07 10:19:20;;;;;;;1999.90;999.90;;;31.20;94.90;;;;;;5071370;28;20081;-76
2023/09/07 10:21:46;;;;;;;1999.90;999.90;;;31.40;95.10;;;;;;5074654;28;20016;-76
2023/09/07 10:24:22;;;;;;;1999.90;999.90;;;31.20;95.20;;;;;;5068611;28;20040;-76
2023/09/07 10:27:03;;;;;;;1999.90;999.90;;;31.30;95.60;;;;;;5064242;28;20024;-76
2023/09/07 10:29:29;;;;;;;1999.90;999.90;;;31.70;95.20;;;;;;5066741;28;20047;-77
2023/09/07 10:31:54;;;;;;;1999.90;999.90;;;31.60;95.20;;;;;;5065616;28;20116;-75
2023/09/07 10:34:22;;;;;;;1999.90;999.90;;;31.20;95.40;;;;;;5070759;28;20115;-77
2023/09/07 10:36:51;;;;;;;1999.90;999.90;;;31.40;95.50;;;;;;5068831;28;20027;-77
2023/09/07 10:39:16;;;;;;;1999.90;999.90;;;31.20;95.60;;;;;;5061786;28;20021;-77
2023/09/07 10:41:43;;;;;;;1999.90;999.90;;;31.40;95.90;;;;;;5077814;28;20024;-76
2023/09/07 10:44:13;;;;;;;1999.90;999.90;;;31.40;95.80;;;;;;5070057;28;20066;-77
2023/09/07 10:46:39;;;;;;;1999.90;999.90;;;31.10;96.00;;;;;;5069158;28;20020;-77
2023/09/07 10:49:11;;;;;;;1999.90;999.90;;;31.30;96.20;;;;;;5068140;28;20029;-77
2023/09/07 10:51:45;;;;;;;1999.90;999.90;;;31.70;95.40;;;;;;5065672;28;20028;-77
2023/09/07 10:54:18;;;;;;;1999.90;999.90;;;32.00;95.50;;;;;;5062823;28;20119;-76
2023/09/07 10:56:47;;;;;;;1999.90;999.90;;;32.00;95.30;;;;;;5062742;28;20104;-77
2023/09/07 10:59:16;;;;;;;1999.90;999.90;;;32.20;95.10;;;;;;5065870;28;20119;-77
2023/09/07 11:01:43;;;;;;;1999.90;999.90;;;32.20;95.00;;;;;;5062329;28;20530;-76
2023/09/07 11:04:11;;;;;;;1999.90;999.90;;;32.10;94.60;;;;;;5067144;28;20123;-77
2023/09/07 11:06:37;;;;;;;1999.90;999.90;;;32.20;94.80;;;;;;5068660;28;20020;-76
2023/09/07 11:09:04;;;;;;;1999.90;999.90;;;32.60;94.40;;;;;;5071262;28;20541;-77
2023/09/07 11:11:33;;;;;;;1999.90;999.90;;;32.40;94.70;;;;;;5074049;28;20027;-77
2023/09/07 11:13:59;;;;;;;1999.90;999.90;;;32.40;94.80;;;;;;5075866;28;20143;-77
2023/09/07 11:16:28;;;;;;;1999.90;999.90;;;32.80;94.80;;;;;;5085737;28;20042;-74
2023/09/07 11:18:54;;;;;;;1999.90;999.90;;;33.30;93.90;;;;;;5074712;28;20032;-74
2023/09/07 11:21:20;;;;;;;1999.90;999.90;;;33.30;93.70;;;;;;5072773;28;20131;-75
2023/09/07 11:23:46;;;;;;;1999.90;999.90;;;33.30;93.60;;;;;;5071296;28;20020;-74
2023/09/07 11:26:13;;;;;;;1999.90;999.90;;;33.20;93.30;;;;;;5075110;28;20044;-75
2023/09/07 11:28:40;;;;;;;1999.90;999.90;;;33.10;93.60;;;;;;5074926;28;20020;-74
2023/09/07 11:31:06;;;;;;;1999.90;999.90;;;33.00;93.70;;;;;;5074804;28;20085;-75
2023/09/07 11:33:33;;;;;;;1999.90;999.90;;;33.20;93.60;;;;;;5074655;28;20032;-76
2023/09/07 11:35:58;;;;;;;1999.90;999.90;;;33.20;93.50;;;;;;5074287;28;20028;-75
2023/09/07 11:38:29;;;;;;;1999.90;999.90;;;32.60;93.60;;;;;;5074247;28;20107;-75
2023/09/07 11:40:56;;;;;;;1999.90;999.90;;;32.60;93.80;;;;;;5066992;28;20040;-75
2023/09/07 11:43:22;;;;;;;1999.90;999.90;;;32.40;93.90;;;;;;5066544;28;20077;-77
2023/09/07 11:45:48;;;;;;;1999.90;999.90;;;32.60;93.70;;;;;;5073071;28;20059;-75
2023/09/07 11:48:14;;;;;;;1999.90;999.90;;;32.60;94.30;;;;;;5074059;28;20444;-75
2023/09/07 11:50:40;;;;;;;1999.90;999.90;;;32.50;93.90;;;;;;5074781;28;20107;-75
2023/09/07 11:53:07;;;;;;;1999.90;999.90;;;32.10;93.80;;;;;;5068002;28;20103;-77
2023/09/07 11:55:33;;;;;;;1999.90;999.90;;;31.80;94.40;;;;;;5070201;28;20016;-77